sensor_id;sensor_type;location;lat;lon;timestamp;temperature;humidity
7666;DHT22;3875;46.562;4.898;2023-01-25T00:02:15;4.40;92.00
7666;DHT22;3875;46.562;4.898;2023-01-25T00:04:41;4.40;92.00
7666;DHT22;3875;46.562;4.898;2023-01-25T00:07:06;4.40;92.10
7666;DHT22;3875;46.562;4.898;2023-01-25T00:09:32;4.40;92.10
7666;DHT22;3875;46.562;4.898;2023-01-25T00:11:58;4.40;92.10
7666;DHT22;3875;46.562;4.898;2023-01-25T00:14:24;4.30;92.00
7666;DHT22;3875;46.562;4.898;2023-01-25T00:16:50;4.30;92.10
7666;DHT22;3875;46.562;4.898;2023-01-25T00:19:16;4.30;92.20
7666;DHT22;3875;46.562;4.898;2023-01-25T00:21:41;4.30;92.20
7666;DHT22;3875;46.562;4.898;2023-01-25T00:24:07;4.30;92.30
7666;DHT22;3875;46.562;4.898;2023-01-25T00:26:36;4.30;92.30
7666;DHT22;3875;46.562;4.898;2023-01-25T00:29:02;4.30;92.30
7666;DHT22;3875;46.562;4.898;2023-01-25T00:36:56;4.30;92.40
7666;DHT22;3875;46.562;4.898;2023-01-25T00:39:23;4.30;92.40
7666;DHT22;3875;46.562;4.898;2023-01-25T00:41:49;4.30;92.30
7666;DHT22;3875;46.562;4.898;2023-01-25T00:44:15;4.30;92.30
7666;DHT22;3875;46.562;4.898;2023-01-25T00:46:41;4.40;92.30
7666;DHT22;3875;46.562;4.898;2023-01-25T00:49:19;4.40;92.20
7666;DHT22;3875;46.562;4.898;2023-01-25T00:51:45;4.40;92.20
7666;DHT22;3875;46.562;4.898;2023-01-25T00:54:11;4.40;92.00
7666;DHT22;3875;46.562;4.898;2023-01-25T00:56:37;4.40;92.10
7666;DHT22;3875;46.562;4.898;2023-01-25T00:59:02;4.40;92.20
7666;DHT22;3875;46.562;4.898;2023-01-25T01:01:28;4.40;92.00
7666;DHT22;3875;46.562;4.898;2023-01-25T01:03:53;4.30;92.10
7666;DHT22;3875;46.562;4.898;2023-01-25T01:06:19;4.30;92.20
7666;DHT22;3875;46.562;4.898;2023-01-25T01:08:45;4.30;92.20
7666;DHT22;3875;46.562;4.898;2023-01-25T01:11:11;4.30;92.30
7666;DHT22;3875;46.562;4.898;2023-01-25T01:13:38;4.30;92.30
7666;DHT22;3875;46.562;4.898;2023-01-25T01:16:06;4.30;92.40
7666;DHT22;3875;46.562;4.898;2023-01-25T01:18:43;4.30;92.20
7666;DHT22;3875;46.562;4.898;2023-01-25T01:21:10;4.30;92.30
7666;DHT22;3875;46.562;4.898;2023-01-25T01:23:36;4.30;92.40
7666;DHT22;3875;46.562;4.898;2023-01-25T01:26:05;4.30;92.50
7666;DHT22;3875;46.562;4.898;2023-01-25T01:28:32;4.30;92.40
7666;DHT22;3875;46.562;4.898;2023-01-25T01:31:03;4.30;92.30
7666;DHT22;3875;46.562;4.898;2023-01-25T01:33:29;4.40;92.40
7666;DHT22;3875;46.562;4.898;2023-01-25T01:35:55;4.40;92.30
7666;DHT22;3875;46.562;4.898;2023-01-25T01:38:21;4.40;92.30
7666;DHT22;3875;46.562;4.898;2023-01-25T01:40:47;4.40;92.30
7666;DHT22;3875;46.562;4.898;2023-01-25T01:43:22;4.40;92.30
7666;DHT22;3875;46.562;4.898;2023-01-25T01:48:28;4.40;92.30
7666;DHT22;3875;46.562;4.898;2023-01-25T01:50:59;4.40;92.10
7666;DHT22;3875;46.562;4.898;2023-01-25T01:53:27;4.40;92.10
7666;DHT22;3875;46.562;4.898;2023-01-25T01:55:57;4.40;92.00
7666;DHT22;3875;46.562;4.898;2023-01-25T01:58:24;4.40;92.10
7666;DHT22;3875;46.562;4.898;2023-01-25T02:00:50;4.40;92.10
7666;DHT22;3875;46.562;4.898;2023-01-25T02:03:16;4.50;92.10
7666;DHT22;3875;46.562;4.898;2023-01-25T02:06:09;4.50;91.90
7666;DHT22;3875;46.562;4.898;2023-01-25T02:08:33;4.50;91.90
7666;DHT22;3875;46.562;4.898;2023-01-25T02:11:01;4.50;91.80
7666;DHT22;3875;46.562;4.898;2023-01-25T02:13:27;4.50;91.60
7666;DHT22;3875;46.562;4.898;2023-01-25T02:15:53;4.40;91.90
7666;DHT22;3875;46.562;4.898;2023-01-25T02:18:21;4.50;91.90
7666;DHT22;3875;46.562;4.898;2023-01-25T02:20:51;4.50;91.90
7666;DHT22;3875;46.562;4.898;2023-01-25T02:26:12;4.50;91.90
7666;DHT22;3875;46.562;4.898;2023-01-25T02:28:49;4.50;91.50
7666;DHT22;3875;46.562;4.898;2023-01-25T02:31:16;4.40;91.50
7666;DHT22;3875;46.562;4.898;2023-01-25T02:33:43;4.40;91.80
7666;DHT22;3875;46.562;4.898;2023-01-25T02:38:43;4.40;91.60
7666;DHT22;3875;46.562;4.898;2023-01-25T02:41:16;4.40;91.50
7666;DHT22;3875;46.562;4.898;2023-01-25T02:43:42;4.40;91.50
7666;DHT22;3875;46.562;4.898;2023-01-25T02:46:26;4.40;91.70
7666;DHT22;3875;46.562;4.898;2023-01-25T02:48:55;4.40;91.70
7666;DHT22;3875;46.562;4.898;2023-01-25T02:51:23;4.40;91.60
7666;DHT22;3875;46.562;4.898;2023-01-25T02:53:49;4.40;91.60
7666;DHT22;3875;46.562;4.898;2023-01-25T02:56:16;4.40;91.80
7666;DHT22;3875;46.562;4.898;2023-01-25T02:58:42;4.40;91.80
7666;DHT22;3875;46.562;4.898;2023-01-25T03:01:08;4.40;91.40
7666;DHT22;3875;46.562;4.898;2023-01-25T03:03:34;4.40;91.30
7666;DHT22;3875;46.562;4.898;2023-01-25T03:06:00;4.40;91.10
7666;DHT22;3875;46.562;4.898;2023-01-25T03:08:25;4.30;91.10
7666;DHT22;3875;46.562;4.898;2023-01-25T03:10:56;4.30;91.20
7666;DHT22;3875;46.562;4.898;2023-01-25T03:13:22;4.30;91.40
7666;DHT22;3875;46.562;4.898;2023-01-25T03:15:48;4.30;91.30
7666;DHT22;3875;46.562;4.898;2023-01-25T03:18:14;4.30;90.80
7666;DHT22;3875;46.562;4.898;2023-01-25T03:20:40;4.30;90.80
7666;DHT22;3875;46.562;4.898;2023-01-25T03:23:05;4.30;91.00
7666;DHT22;3875;46.562;4.898;2023-01-25T03:25:31;4.20;91.00
7666;DHT22;3875;46.562;4.898;2023-01-25T03:27:57;4.20;91.10
7666;DHT22;3875;46.562;4.898;2023-01-25T03:30:22;4.20;91.10
7666;DHT22;3875;46.562;4.898;2023-01-25T03:32:48;4.20;91.20
7666;DHT22;3875;46.562;4.898;2023-01-25T03:35:15;4.20;91.20
7666;DHT22;3875;46.562;4.898;2023-01-25T03:37:41;4.20;91.20
7666;DHT22;3875;46.562;4.898;2023-01-25T03:40:07;4.20;91.20
7666;DHT22;3875;46.562;4.898;2023-01-25T03:42:33;4.20;91.20
7666;DHT22;3875;46.562;4.898;2023-01-25T03:44:59;4.20;91.30
7666;DHT22;3875;46.562;4.898;2023-01-25T03:47:24;4.20;91.30
7666;DHT22;3875;46.562;4.898;2023-01-25T03:49:50;4.20;91.40
7666;DHT22;3875;46.562;4.898;2023-01-25T03:52:16;4.20;91.40
7666;DHT22;3875;46.562;4.898;2023-01-25T03:54:41;4.20;91.30
7666;DHT22;3875;46.562;4.898;2023-01-25T03:57:07;4.20;91.20
7666;DHT22;3875;46.562;4.898;2023-01-25T03:59:33;4.20;91.20
7666;DHT22;3875;46.562;4.898;2023-01-25T04:01:58;4.20;91.20
7666;DHT22;3875;46.562;4.898;2023-01-25T04:04:24;4.20;91.20
7666;DHT22;3875;46.562;4.898;2023-01-25T04:06:50;4.20;91.30
7666;DHT22;3875;46.562;4.898;2023-01-25T04:09:15;4.20;91.30
7666;DHT22;3875;46.562;4.898;2023-01-25T04:11:41;4.20;91.20
7666;DHT22;3875;46.562;4.898;2023-01-25T04:14:07;4.20;91.20
7666;DHT22;3875;46.562;4.898;2023-01-25T04:16:32;4.20;91.20
7666;DHT22;3875;46.562;4.898;2023-01-25T04:19:00;4.20;91.20
7666;DHT22;3875;46.562;4.898;2023-01-25T04:21:26;4.20;91.20
7666;DHT22;3875;46.562;4.898;2023-01-25T04:23:51;4.20;91.30
7666;DHT22;3875;46.562;4.898;2023-01-25T04:26:17;4.20;91.20
7666;DHT22;3875;46.562;4.898;2023-01-25T04:28:43;4.20;91.20
7666;DHT22;3875;46.562;4.898;2023-01-25T04:31:08;4.20;91.10
7666;DHT22;3875;46.562;4.898;2023-01-25T04:33:35;4.20;91.10
7666;DHT22;3875;46.562;4.898;2023-01-25T04:36:01;4.20;91.30
7666;DHT22;3875;46.562;4.898;2023-01-25T04:38:27;4.20;91.30
7666;DHT22;3875;46.562;4.898;2023-01-25T04:40:53;4.10;91.20
7666;DHT22;3875;46.562;4.898;2023-01-25T04:43:19;4.10;91.30
7666;DHT22;3875;46.562;4.898;2023-01-25T04:45:46;4.10;91.30
7666;DHT22;3875;46.562;4.898;2023-01-25T04:48:12;4.10;91.30
7666;DHT22;3875;46.562;4.898;2023-01-25T04:50:39;4.00;91.50
7666;DHT22;3875;46.562;4.898;2023-01-25T04:53:06;4.10;91.50
7666;DHT22;3875;46.562;4.898;2023-01-25T04:55:32;4.10;91.60
7666;DHT22;3875;46.562;4.898;2023-01-25T04:57:58;4.10;91.50
7666;DHT22;3875;46.562;4.898;2023-01-25T05:00:24;4.10;91.50
7666;DHT22;3875;46.562;4.898;2023-01-25T05:02:50;4.00;91.60
7666;DHT22;3875;46.562;4.898;2023-01-25T05:05:16;4.00;91.60
7666;DHT22;3875;46.562;4.898;2023-01-25T05:07:42;4.00;91.70
7666;DHT22;3875;46.562;4.898;2023-01-25T05:10:08;4.00;91.80
7666;DHT22;3875;46.562;4.898;2023-01-25T05:12:34;4.00;91.70
7666;DHT22;3875;46.562;4.898;2023-01-25T05:15:00;4.00;91.80
7666;DHT22;3875;46.562;4.898;2023-01-25T05:17:26;4.00;92.00
7666;DHT22;3875;46.562;4.898;2023-01-25T05:19:51;4.00;92.00
7666;DHT22;3875;46.562;4.898;2023-01-25T05:22:18;4.00;92.00
7666;DHT22;3875;46.562;4.898;2023-01-25T05:24:46;4.00;92.00
7666;DHT22;3875;46.562;4.898;2023-01-25T05:27:13;4.00;92.10
7666;DHT22;3875;46.562;4.898;2023-01-25T05:29:41;4.00;92.10
7666;DHT22;3875;46.562;4.898;2023-01-25T05:32:11;4.00;92.20
7666;DHT22;3875;46.562;4.898;2023-01-25T05:34:37;3.90;92.20
7666;DHT22;3875;46.562;4.898;2023-01-25T05:37:05;4.00;92.30
7666;DHT22;3875;46.562;4.898;2023-01-25T05:39:31;3.90;92.30
7666;DHT22;3875;46.562;4.898;2023-01-25T05:41:56;3.90;92.30
7666;DHT22;3875;46.562;4.898;2023-01-25T05:44:22;3.90;92.40
7666;DHT22;3875;46.562;4.898;2023-01-25T05:46:48;4.00;92.40
7666;DHT22;3875;46.562;4.898;2023-01-25T05:49:15;4.00;92.30
7666;DHT22;3875;46.562;4.898;2023-01-25T05:51:41;4.00;92.30
7666;DHT22;3875;46.562;4.898;2023-01-25T05:54:13;4.00;92.30
7666;DHT22;3875;46.562;4.898;2023-01-25T05:56:39;4.00;92.30
7666;DHT22;3875;46.562;4.898;2023-01-25T05:59:05;4.00;92.30
7666;DHT22;3875;46.562;4.898;2023-01-25T06:01:31;4.00;92.30
7666;DHT22;3875;46.562;4.898;2023-01-25T06:03:57;4.00;92.40
7666;DHT22;3875;46.562;4.898;2023-01-25T06:06:24;4.00;92.40
7666;DHT22;3875;46.562;4.898;2023-01-25T06:08:49;4.00;92.40
7666;DHT22;3875;46.562;4.898;2023-01-25T06:11:19;4.00;92.50
7666;DHT22;3875;46.562;4.898;2023-01-25T06:13:45;4.00;92.50
7666;DHT22;3875;46.562;4.898;2023-01-25T06:16:11;4.00;92.70
7666;DHT22;3875;46.562;4.898;2023-01-25T06:18:37;4.00;92.70
7666;DHT22;3875;46.562;4.898;2023-01-25T06:21:04;4.00;92.70
7666;DHT22;3875;46.562;4.898;2023-01-25T06:23:30;4.00;92.70
7666;DHT22;3875;46.562;4.898;2023-01-25T06:26:12;4.00;92.90
7666;DHT22;3875;46.562;4.898;2023-01-25T06:28:38;3.90;93.10
7666;DHT22;3875;46.562;4.898;2023-01-25T06:31:14;3.80;93.30
7666;DHT22;3875;46.562;4.898;2023-01-25T06:33:41;3.90;93.40
7666;DHT22;3875;46.562;4.898;2023-01-25T06:36:11;3.90;93.40
7666;DHT22;3875;46.562;4.898;2023-01-25T06:38:37;3.80;93.40
7666;DHT22;3875;46.562;4.898;2023-01-25T06:41:05;3.80;93.50
7666;DHT22;3875;46.562;4.898;2023-01-25T06:43:32;3.90;93.40
7666;DHT22;3875;46.562;4.898;2023-01-25T06:46:01;3.90;93.30
7666;DHT22;3875;46.562;4.898;2023-01-25T06:48:28;3.90;93.30
7666;DHT22;3875;46.562;4.898;2023-01-25T06:51:07;3.90;93.30
7666;DHT22;3875;46.562;4.898;2023-01-25T06:53:36;3.90;93.30
7666;DHT22;3875;46.562;4.898;2023-01-25T06:56:15;4.00;93.30
7666;DHT22;3875;46.562;4.898;2023-01-25T06:58:42;4.00;93.20
7666;DHT22;3875;46.562;4.898;2023-01-25T07:03:38;3.90;93.40
7666;DHT22;3875;46.562;4.898;2023-01-25T07:06:05;3.90;93.40
7666;DHT22;3875;46.562;4.898;2023-01-25T07:08:32;3.80;93.60
7666;DHT22;3875;46.562;4.898;2023-01-25T07:11:01;3.80;93.90
7666;DHT22;3875;46.562;4.898;2023-01-25T07:13:28;3.80;93.90
7666;DHT22;3875;46.562;4.898;2023-01-25T07:16:05;3.80;94.00
7666;DHT22;3875;46.562;4.898;2023-01-25T07:18:32;3.70;93.90
7666;DHT22;3875;46.562;4.898;2023-01-25T07:21:06;3.70;94.10
7666;DHT22;3875;46.562;4.898;2023-01-25T07:23:33;3.70;94.20
7666;DHT22;3875;46.562;4.898;2023-01-25T07:26:00;3.60;94.30
7666;DHT22;3875;46.562;4.898;2023-01-25T07:28:26;3.60;94.40
7666;DHT22;3875;46.562;4.898;2023-01-25T07:30:52;3.60;94.40
7666;DHT22;3875;46.562;4.898;2023-01-25T07:33:17;3.60;94.50
7666;DHT22;3875;46.562;4.898;2023-01-25T07:35:43;3.60;94.50
7666;DHT22;3875;46.562;4.898;2023-01-25T07:38:09;3.50;93.70
7666;DHT22;3875;46.562;4.898;2023-01-25T07:40:34;3.40;93.30
7666;DHT22;3875;46.562;4.898;2023-01-25T07:43:00;3.40;92.90
7666;DHT22;3875;46.562;4.898;2023-01-25T07:45:26;3.30;92.80
7666;DHT22;3875;46.562;4.898;2023-01-25T07:47:59;3.30;92.80
7666;DHT22;3875;46.562;4.898;2023-01-25T07:50:25;3.20;92.70
7666;DHT22;3875;46.562;4.898;2023-01-25T07:52:52;3.20;92.40
7666;DHT22;3875;46.562;4.898;2023-01-25T07:55:17;3.20;92.50
7666;DHT22;3875;46.562;4.898;2023-01-25T07:57:43;3.20;92.50
7666;DHT22;3875;46.562;4.898;2023-01-25T08:00:09;3.20;92.40
7666;DHT22;3875;46.562;4.898;2023-01-25T08:02:35;3.20;92.10
7666;DHT22;3875;46.562;4.898;2023-01-25T08:05:01;3.10;92.30
7666;DHT22;3875;46.562;4.898;2023-01-25T08:07:27;3.10;92.50
7666;DHT22;3875;46.562;4.898;2023-01-25T08:09:53;3.10;92.40
7666;DHT22;3875;46.562;4.898;2023-01-25T08:12:19;3.10;92.40
7666;DHT22;3875;46.562;4.898;2023-01-25T08:14:45;3.10;92.50
7666;DHT22;3875;46.562;4.898;2023-01-25T08:17:10;3.10;92.50
7666;DHT22;3875;46.562;4.898;2023-01-25T08:19:36;3.10;92.50
7666;DHT22;3875;46.562;4.898;2023-01-25T08:22:02;3.10;92.70
7666;DHT22;3875;46.562;4.898;2023-01-25T08:24:28;3.10;92.60
7666;DHT22;3875;46.562;4.898;2023-01-25T08:26:53;3.10;92.50
7666;DHT22;3875;46.562;4.898;2023-01-25T08:29:19;3.10;92.60
7666;DHT22;3875;46.562;4.898;2023-01-25T08:31:44;3.10;92.30
7666;DHT22;3875;46.562;4.898;2023-01-25T08:34:10;3.00;92.20
7666;DHT22;3875;46.562;4.898;2023-01-25T08:36:36;3.00;92.20
7666;DHT22;3875;46.562;4.898;2023-01-25T08:39:07;3.00;92.30
7666;DHT22;3875;46.562;4.898;2023-01-25T08:41:34;3.00;92.50
7666;DHT22;3875;46.562;4.898;2023-01-25T08:44:00;3.00;92.40
7666;DHT22;3875;46.562;4.898;2023-01-25T08:46:27;3.00;92.40
7666;DHT22;3875;46.562;4.898;2023-01-25T08:48:55;3.00;92.50
7666;DHT22;3875;46.562;4.898;2023-01-25T08:51:21;3.00;92.70
7666;DHT22;3875;46.562;4.898;2023-01-25T08:53:47;3.00;92.80
7666;DHT22;3875;46.562;4.898;2023-01-25T08:56:14;3.10;92.50
7666;DHT22;3875;46.562;4.898;2023-01-25T08:58:43;3.10;92.50
7666;DHT22;3875;46.562;4.898;2023-01-25T09:01:11;3.10;92.50
7666;DHT22;3875;46.562;4.898;2023-01-25T09:03:41;3.20;92.30
7666;DHT22;3875;46.562;4.898;2023-01-25T09:06:08;3.20;92.40
7666;DHT22;3875;46.562;4.898;2023-01-25T09:08:34;3.20;92.40
7666;DHT22;3875;46.562;4.898;2023-01-25T09:11:04;3.20;92.50
7666;DHT22;3875;46.562;4.898;2023-01-25T09:13:30;3.30;92.20
7666;DHT22;3875;46.562;4.898;2023-01-25T09:16:00;3.30;92.20
7666;DHT22;3875;46.562;4.898;2023-01-25T09:18:28;3.30;92.00
7666;DHT22;3875;46.562;4.898;2023-01-25T09:20:54;3.40;92.10
7666;DHT22;3875;46.562;4.898;2023-01-25T09:23:19;3.40;91.70
7666;DHT22;3875;46.562;4.898;2023-01-25T09:25:58;3.30;91.80
7666;DHT22;3875;46.562;4.898;2023-01-25T09:28:28;3.30;91.90
7666;DHT22;3875;46.562;4.898;2023-01-25T09:31:02;3.30;91.90
7666;DHT22;3875;46.562;4.898;2023-01-25T09:33:30;3.40;92.00
7666;DHT22;3875;46.562;4.898;2023-01-25T09:35:56;3.40;91.70
7666;DHT22;3875;46.562;4.898;2023-01-25T09:38:22;3.50;91.70
7666;DHT22;3875;46.562;4.898;2023-01-25T09:49:14;3.70;91.20
7666;DHT22;3875;46.562;4.898;2023-01-25T09:54:40;3.80;91.30
7666;DHT22;3875;46.562;4.898;2023-01-25T09:57:21;3.90;91.20
7666;DHT22;3875;46.562;4.898;2023-01-25T09:59:51;3.90;90.80
7666;DHT22;3875;46.562;4.898;2023-01-25T10:02:41;3.90;90.30
7666;DHT22;3875;46.562;4.898;2023-01-25T10:05:18;3.90;90.50
7666;DHT22;3875;46.562;4.898;2023-01-25T10:08:10;4.00;90.60
7666;DHT22;3875;46.562;4.898;2023-01-25T10:10:41;4.00;90.60
7666;DHT22;3875;46.562;4.898;2023-01-25T10:13:12;4.00;90.30
7666;DHT22;3875;46.562;4.898;2023-01-25T10:15:50;4.00;90.10
7666;DHT22;3875;46.562;4.898;2023-01-25T10:26:33;3.80;90.60
7666;DHT22;3875;46.562;4.898;2023-01-25T10:34:17;4.00;91.00
7666;DHT22;3875;46.562;4.898;2023-01-25T10:36:54;4.00;90.90
7666;DHT22;3875;46.562;4.898;2023-01-25T10:39:20;4.00;90.80
7666;DHT22;3875;46.562;4.898;2023-01-25T10:41:50;4.00;90.70
7666;DHT22;3875;46.562;4.898;2023-01-25T10:44:17;4.00;90.80
7666;DHT22;3875;46.562;4.898;2023-01-25T10:47:03;3.90;91.10
7666;DHT22;3875;46.562;4.898;2023-01-25T10:49:46;3.90;91.20
7666;DHT22;3875;46.562;4.898;2023-01-25T10:57:30;4.10;91.40
7666;DHT22;3875;46.562;4.898;2023-01-25T10:59:57;4.20;91.10
7666;DHT22;3875;46.562;4.898;2023-01-25T11:05:23;4.30;91.10
7666;DHT22;3875;46.562;4.898;2023-01-25T11:07:49;4.30;91.20
7666;DHT22;3875;46.562;4.898;2023-01-25T11:10:33;4.20;91.50
7666;DHT22;3875;46.562;4.898;2023-01-25T11:15:44;4.40;91.80
7666;DHT22;3875;46.562;4.898;2023-01-25T11:18:24;4.40;91.60
7666;DHT22;3875;46.562;4.898;2023-01-25T11:21:12;4.40;91.80
7666;DHT22;3875;46.562;4.898;2023-01-25T11:23:39;4.50;91.50
7666;DHT22;3875;46.562;4.898;2023-01-25T11:26:18;4.60;91.50
7666;DHT22;3875;46.562;4.898;2023-01-25T11:28:47;4.60;91.20
7666;DHT22;3875;46.562;4.898;2023-01-25T11:31:19;4.50;91.40
7666;DHT22;3875;46.562;4.898;2023-01-25T11:33:46;4.50;91.50
7666;DHT22;3875;46.562;4.898;2023-01-25T11:49:58;4.60;92.20
7666;DHT22;3875;46.562;4.898;2023-01-25T11:56:14;4.60;92.20
7666;DHT22;3875;46.562;4.898;2023-01-25T12:07:02;4.80;92.40
7666;DHT22;3875;46.562;4.898;2023-01-25T12:09:47;4.80;92.20
7666;DHT22;3875;46.562;4.898;2023-01-25T12:16:11;4.90;91.50
7666;DHT22;3875;46.562;4.898;2023-01-25T12:29:49;5.00;91.20
7666;DHT22;3875;46.562;4.898;2023-01-25T12:32:29;5.00;91.20
7666;DHT22;3875;46.562;4.898;2023-01-25T12:37:35;4.90;91.30
7666;DHT22;3875;46.562;4.898;2023-01-25T12:40:10;5.00;91.40
7666;DHT22;3875;46.562;4.898;2023-01-25T12:42:55;5.00;91.30
7666;DHT22;3875;46.562;4.898;2023-01-25T12:45:25;4.90;91.30
7666;DHT22;3875;46.562;4.898;2023-01-25T12:48:02;4.90;91.50
7666;DHT22;3875;46.562;4.898;2023-01-25T12:50:37;4.80;91.30
7666;DHT22;3875;46.562;4.898;2023-01-25T12:53:41;4.80;91.30
7666;DHT22;3875;46.562;4.898;2023-01-25T12:56:12;4.80;91.40
7666;DHT22;3875;46.562;4.898;2023-01-25T12:58:53;4.70;91.60
7666;DHT22;3875;46.562;4.898;2023-01-25T13:01:37;4.70;91.50
7666;DHT22;3875;46.562;4.898;2023-01-25T13:07:02;4.60;92.00
7666;DHT22;3875;46.562;4.898;2023-01-25T13:09:44;4.60;92.10
7666;DHT22;3875;46.562;4.898;2023-01-25T13:12:16;4.60;92.00
7666;DHT22;3875;46.562;4.898;2023-01-25T13:14:41;4.60;92.00
7666;DHT22;3875;46.562;4.898;2023-01-25T13:19:48;4.60;91.90
7666;DHT22;3875;46.562;4.898;2023-01-25T13:27:40;4.60;92.40
7666;DHT22;3875;46.562;4.898;2023-01-25T13:30:24;4.60;92.50
7666;DHT22;3875;46.562;4.898;2023-01-25T13:35:30;4.60;92.30
7666;DHT22;3875;46.562;4.898;2023-01-25T13:40:35;4.50;92.10
7666;DHT22;3875;46.562;4.898;2023-01-25T13:45:29;4.60;92.40
7666;DHT22;3875;46.562;4.898;2023-01-25T13:48:15;4.60;92.40
7666;DHT22;3875;46.562;4.898;2023-01-25T13:50:52;4.60;91.60
7666;DHT22;3875;46.562;4.898;2023-01-25T13:53:22;4.60;91.90
7666;DHT22;3875;46.562;4.898;2023-01-25T13:55:53;4.60;91.90
7666;DHT22;3875;46.562;4.898;2023-01-25T13:58:28;4.60;91.90
7666;DHT22;3875;46.562;4.898;2023-01-25T14:01:03;4.70;91.70
7666;DHT22;3875;46.562;4.898;2023-01-25T14:03:39;4.70;91.50
7666;DHT22;3875;46.562;4.898;2023-01-25T14:06:06;4.70;91.30
7666;DHT22;3875;46.562;4.898;2023-01-25T14:08:38;4.70;91.30
7666;DHT22;3875;46.562;4.898;2023-01-25T14:11:04;4.70;91.30
7666;DHT22;3875;46.562;4.898;2023-01-25T14:13:30;4.80;91.50
7666;DHT22;3875;46.562;4.898;2023-01-25T14:15:58;4.80;91.20
7666;DHT22;3875;46.562;4.898;2023-01-25T14:18:34;4.80;91.00
7666;DHT22;3875;46.562;4.898;2023-01-25T14:21:20;4.80;91.10
7666;DHT22;3875;46.562;4.898;2023-01-25T14:23:47;4.80;90.90
7666;DHT22;3875;46.562;4.898;2023-01-25T14:26:18;4.80;91.00
7666;DHT22;3875;46.562;4.898;2023-01-25T14:28:46;4.80;91.10
7666;DHT22;3875;46.562;4.898;2023-01-25T14:31:24;4.80;91.00
7666;DHT22;3875;46.562;4.898;2023-01-25T14:33:51;4.80;90.80
7666;DHT22;3875;46.562;4.898;2023-01-25T14:36:33;4.70;91.00
7666;DHT22;3875;46.562;4.898;2023-01-25T14:38:59;4.70;91.20
7666;DHT22;3875;46.562;4.898;2023-01-25T14:41:36;4.70;91.30
7666;DHT22;3875;46.562;4.898;2023-01-25T14:44:11;4.70;91.20
7666;DHT22;3875;46.562;4.898;2023-01-25T14:46:38;4.60;91.40
7666;DHT22;3875;46.562;4.898;2023-01-25T14:49:19;4.60;91.60
7666;DHT22;3875;46.562;4.898;2023-01-25T14:52:11;4.60;91.60
7666;DHT22;3875;46.562;4.898;2023-01-25T14:54:51;4.60;91.50
7666;DHT22;3875;46.562;4.898;2023-01-25T14:59:50;4.60;91.50
7666;DHT22;3875;46.562;4.898;2023-01-25T15:04:56;4.60;91.80
7666;DHT22;3875;46.562;4.898;2023-01-25T15:07:44;4.60;91.80
7666;DHT22;3875;46.562;4.898;2023-01-25T15:15:31;4.60;91.60
7666;DHT22;3875;46.562;4.898;2023-01-25T15:17:57;4.60;91.90
7666;DHT22;3875;46.562;4.898;2023-01-25T15:20:39;4.60;91.80
7666;DHT22;3875;46.562;4.898;2023-01-25T15:23:23;4.70;91.70
7666;DHT22;3875;46.562;4.898;2023-01-25T15:25:54;4.70;91.60
7666;DHT22;3875;46.562;4.898;2023-01-25T15:28:22;4.70;91.50
7666;DHT22;3875;46.562;4.898;2023-01-25T15:30:48;4.70;91.40
7666;DHT22;3875;46.562;4.898;2023-01-25T15:33:25;4.60;91.40
7666;DHT22;3875;46.562;4.898;2023-01-25T15:35:53;4.60;91.30
7666;DHT22;3875;46.562;4.898;2023-01-25T15:38:19;4.60;91.20
7666;DHT22;3875;46.562;4.898;2023-01-25T15:40:46;4.60;91.20
7666;DHT22;3875;46.562;4.898;2023-01-25T15:43:14;4.60;91.20
7666;DHT22;3875;46.562;4.898;2023-01-25T15:45:41;4.60;91.10
7666;DHT22;3875;46.562;4.898;2023-01-25T15:48:14;4.60;91.10
7666;DHT22;3875;46.562;4.898;2023-01-25T15:50:40;4.50;90.90
7666;DHT22;3875;46.562;4.898;2023-01-25T15:53:15;4.60;91.00
7666;DHT22;3875;46.562;4.898;2023-01-25T15:55:42;4.60;91.00
7666;DHT22;3875;46.562;4.898;2023-01-25T15:58:17;4.50;90.50
7666;DHT22;3875;46.562;4.898;2023-01-25T16:00:44;4.50;90.60
7666;DHT22;3875;46.562;4.898;2023-01-25T16:03:10;4.50;90.80
7666;DHT22;3875;46.562;4.898;2023-01-25T16:05:37;4.50;90.90
7666;DHT22;3875;46.562;4.898;2023-01-25T16:08:03;4.50;91.10
7666;DHT22;3875;46.562;4.898;2023-01-25T16:10:29;4.50;91.00
7666;DHT22;3875;46.562;4.898;2023-01-25T16:12:54;4.50;91.00
7666;DHT22;3875;46.562;4.898;2023-01-25T16:15:20;4.50;90.50
7666;DHT22;3875;46.562;4.898;2023-01-25T16:17:46;4.50;90.70
7666;DHT22;3875;46.562;4.898;2023-01-25T16:20:20;4.50;90.70
7666;DHT22;3875;46.562;4.898;2023-01-25T16:22:46;4.60;90.50
7666;DHT22;3875;46.562;4.898;2023-01-25T16:25:12;4.60;90.50
7666;DHT22;3875;46.562;4.898;2023-01-25T16:27:38;4.60;90.50
7666;DHT22;3875;46.562;4.898;2023-01-25T16:30:05;4.60;90.50
7666;DHT22;3875;46.562;4.898;2023-01-25T16:32:31;4.60;90.40
7666;DHT22;3875;46.562;4.898;2023-01-25T16:34:57;4.70;90.30
7666;DHT22;3875;46.562;4.898;2023-01-25T16:37:22;4.60;90.40
7666;DHT22;3875;46.562;4.898;2023-01-25T16:39:48;4.60;90.40
7666;DHT22;3875;46.562;4.898;2023-01-25T16:42:16;4.50;90.40
7666;DHT22;3875;46.562;4.898;2023-01-25T16:44:42;4.60;90.40
7666;DHT22;3875;46.562;4.898;2023-01-25T16:47:12;4.60;90.10
7666;DHT22;3875;46.562;4.898;2023-01-25T16:49:38;4.50;90.20
7666;DHT22;3875;46.562;4.898;2023-01-25T16:52:04;4.60;90.20
7666;DHT22;3875;46.562;4.898;2023-01-25T16:54:29;4.60;90.20
7666;DHT22;3875;46.562;4.898;2023-01-25T16:56:56;4.50;90.30
7666;DHT22;3875;46.562;4.898;2023-01-25T16:59:23;4.50;90.40
7666;DHT22;3875;46.562;4.898;2023-01-25T17:01:49;4.50;90.60
7666;DHT22;3875;46.562;4.898;2023-01-25T17:04:14;4.50;90.70
7666;DHT22;3875;46.562;4.898;2023-01-25T17:06:43;4.50;90.80
7666;DHT22;3875;46.562;4.898;2023-01-25T17:09:17;4.50;90.90
7666;DHT22;3875;46.562;4.898;2023-01-25T17:11:44;4.50;90.80
7666;DHT22;3875;46.562;4.898;2023-01-25T17:14:15;4.50;90.90
7666;DHT22;3875;46.562;4.898;2023-01-25T17:16:42;4.60;90.90
7666;DHT22;3875;46.562;4.898;2023-01-25T17:19:12;4.60;90.80
7666;DHT22;3875;46.562;4.898;2023-01-25T17:21:38;4.60;90.90
7666;DHT22;3875;46.562;4.898;2023-01-25T17:24:04;4.50;90.90
7666;DHT22;3875;46.562;4.898;2023-01-25T17:26:31;4.50;90.90
7666;DHT22;3875;46.562;4.898;2023-01-25T17:28:59;4.50;91.00
7666;DHT22;3875;46.562;4.898;2023-01-25T17:31:29;4.50;91.10
7666;DHT22;3875;46.562;4.898;2023-01-25T17:33:55;4.60;91.00
7666;DHT22;3875;46.562;4.898;2023-01-25T17:36:21;4.60;90.90
7666;DHT22;3875;46.562;4.898;2023-01-25T17:38:47;4.60;91.00
7666;DHT22;3875;46.562;4.898;2023-01-25T17:41:15;4.50;90.90
7666;DHT22;3875;46.562;4.898;2023-01-25T17:43:40;4.50;91.00
7666;DHT22;3875;46.562;4.898;2023-01-25T17:46:14;4.50;91.10
7666;DHT22;3875;46.562;4.898;2023-01-25T17:48:41;4.50;91.00
7666;DHT22;3875;46.562;4.898;2023-01-25T17:51:07;4.50;91.00
7666;DHT22;3875;46.562;4.898;2023-01-25T17:53:33;4.50;91.00
7666;DHT22;3875;46.562;4.898;2023-01-25T17:56:03;4.50;91.00
7666;DHT22;3875;46.562;4.898;2023-01-25T17:58:30;4.50;91.00
7666;DHT22;3875;46.562;4.898;2023-01-25T18:00:56;4.50;90.90
7666;DHT22;3875;46.562;4.898;2023-01-25T18:03:21;4.40;90.80
7666;DHT22;3875;46.562;4.898;2023-01-25T18:05:47;4.40;90.70
7666;DHT22;3875;46.562;4.898;2023-01-25T18:08:13;4.50;90.80
7666;DHT22;3875;46.562;4.898;2023-01-25T18:10:39;4.50;90.10
7666;DHT22;3875;46.562;4.898;2023-01-25T18:13:06;4.50;89.80
7666;DHT22;3875;46.562;4.898;2023-01-25T18:15:32;4.50;89.60
7666;DHT22;3875;46.562;4.898;2023-01-25T18:17:58;4.50;89.80
7666;DHT22;3875;46.562;4.898;2023-01-25T18:20:24;4.50;89.50
7666;DHT22;3875;46.562;4.898;2023-01-25T18:22:50;4.50;89.40
7666;DHT22;3875;46.562;4.898;2023-01-25T18:25:34;4.50;89.60
7666;DHT22;3875;46.562;4.898;2023-01-25T18:27:59;4.50;89.20
7666;DHT22;3875;46.562;4.898;2023-01-25T18:30:32;4.40;89.00
7666;DHT22;3875;46.562;4.898;2023-01-25T18:32:58;4.50;89.40